sensor_id;sensor_type;location;lat;lon;timestamp;P1;durP1;ratioP1;P2;durP2;ratioP2
64684;SDS011;51109;47.414;18.954;2022-09-17T00:02:25;10.50;;;7.45;;
64684;SDS011;51109;47.414;18.954;2022-09-17T00:04:51;10.75;;;7.78;;
64684;SDS011;51109;47.414;18.954;2022-09-17T00:07:17;13.40;;;8.98;;
64684;SDS011;51109;47.414;18.954;2022-09-17T00:09:43;15.80;;;8.30;;
64684;SDS011;51109;47.414;18.954;2022-09-17T00:12:09;14.30;;;7.97;;
64684;SDS011;51109;47.414;18.954;2022-09-17T00:14:35;10.55;;;7.30;;
64684;SDS011;51109;47.414;18.954;2022-09-17T00:17:01;12.43;;;8.57;;
64684;SDS011;51109;47.414;18.954;2022-09-17T00:19:27;13.55;;;8.82;;
64684;SDS011;51109;47.414;18.954;2022-09-17T00:21:53;9.35;;;7.95;;
64684;SDS011;51109;47.414;18.954;2022-09-17T00:24:19;13.30;;;8.93;;
64684;SDS011;51109;47.414;18.954;2022-09-17T00:26:46;9.75;;;8.00;;
64684;SDS011;51109;47.414;18.954;2022-09-17T00:29:12;11.95;;;9.07;;
64684;SDS011;51109;47.414;18.954;2022-09-17T00:31:38;15.93;;;9.13;;
64684;SDS011;51109;47.414;18.954;2022-09-17T00:34:05;12.32;;;9.30;;
64684;SDS011;51109;47.414;18.954;2022-09-17T00:36:33;12.80;;;9.52;;
64684;SDS011;51109;47.414;18.954;2022-09-17T00:39:00;13.27;;;9.40;;
64684;SDS011;51109;47.414;18.954;2022-09-17T00:41:31;13.70;;;9.70;;
64684;SDS011;51109;47.414;18.954;2022-09-17T00:43:58;15.95;;;9.63;;
64684;SDS011;51109;47.414;18.954;2022-09-17T00:48:59;14.68;;;9.73;;
64684;SDS011;51109;47.414;18.954;2022-09-17T00:51:35;13.93;;;10.90;;
64684;SDS011;51109;47.414;18.954;2022-09-17T00:54:04;19.63;;;10.30;;
64684;SDS011;51109;47.414;18.954;2022-09-17T00:56:33;13.57;;;9.57;;
64684;SDS011;51109;47.414;18.954;2022-09-17T00:59:00;15.32;;;10.68;;
64684;SDS011;51109;47.414;18.954;2022-09-17T01:01:28;15.57;;;9.25;;
64684;SDS011;51109;47.414;18.954;2022-09-17T01:03:55;14.95;;;9.55;;
64684;SDS011;51109;47.414;18.954;2022-09-17T01:17:42;17.60;;;11.30;;
64684;SDS011;51109;47.414;18.954;2022-09-17T01:23:03;13.88;;;11.68;;
64684;SDS011;51109;47.414;18.954;2022-09-17T01:25:50;14.45;;;11.50;;
64684;SDS011;51109;47.414;18.954;2022-09-17T01:28:39;15.73;;;11.20;;
64684;SDS011;51109;47.414;18.954;2022-09-17T01:33:58;15.80;;;11.45;;
64684;SDS011;51109;47.414;18.954;2022-09-17T01:36:33;15.55;;;11.10;;
64684;SDS011;51109;47.414;18.954;2022-09-17T01:41:53;17.42;;;10.38;;
64684;SDS011;51109;47.414;18.954;2022-09-17T01:47:33;16.88;;;12.10;;
64684;SDS011;51109;47.414;18.954;2022-09-17T01:50:21;17.00;;;11.77;;
64684;SDS011;51109;47.414;18.954;2022-09-17T01:53:08;17.98;;;12.23;;
64684;SDS011;51109;47.414;18.954;2022-09-17T01:55:36;15.60;;;11.32;;
64684;SDS011;51109;47.414;18.954;2022-09-17T01:58:18;16.05;;;11.70;;
64684;SDS011;51109;47.414;18.954;2022-09-17T02:00:55;17.42;;;11.93;;
64684;SDS011;51109;47.414;18.954;2022-09-17T02:06:16;11.23;;;9.82;;
64684;SDS011;51109;47.414;18.954;2022-09-17T02:11:16;14.18;;;9.60;;
64684;SDS011;51109;47.414;18.954;2022-09-17T02:13:45;14.60;;;9.73;;
64684;SDS011;51109;47.414;18.954;2022-09-17T02:16:23;11.07;;;9.88;;
64684;SDS011;51109;47.414;18.954;2022-09-17T02:18:56;11.20;;;9.45;;
64684;SDS011;51109;47.414;18.954;2022-09-17T02:21:38;10.27;;;9.18;;
64684;SDS011;51109;47.414;18.954;2022-09-17T02:27:09;11.15;;;9.52;;
64684;SDS011;51109;47.414;18.954;2022-09-17T02:29:42;15.18;;;9.40;;
64684;SDS011;51109;47.414;18.954;2022-09-17T02:32:09;10.45;;;8.98;;
64684;SDS011;51109;47.414;18.954;2022-09-17T02:34:37;10.00;;;8.18;;
64684;SDS011;51109;47.414;18.954;2022-09-17T02:37:03;12.32;;;8.73;;
64684;SDS011;51109;47.414;18.954;2022-09-17T02:39:30;11.05;;;7.65;;
64684;SDS011;51109;47.414;18.954;2022-09-17T02:44:37;10.93;;;8.90;;
64684;SDS011;51109;47.414;18.954;2022-09-17T02:55:49;10.23;;;9.05;;
64684;SDS011;51109;47.414;18.954;2022-09-17T02:58:46;7.70;;;6.95;;
64684;SDS011;51109;47.414;18.954;2022-09-17T03:01:49;12.95;;;7.85;;
64684;SDS011;51109;47.414;18.954;2022-09-17T03:04:22;9.40;;;7.82;;
64684;SDS011;51109;47.414;18.954;2022-09-17T03:06:51;9.25;;;7.93;;
64684;SDS011;51109;47.414;18.954;2022-09-17T03:09:18;10.63;;;8.25;;
64684;SDS011;51109;47.414;18.954;2022-09-17T03:11:44;12.70;;;8.63;;
64684;SDS011;51109;47.414;18.954;2022-09-17T03:14:10;9.82;;;8.18;;
64684;SDS011;51109;47.414;18.954;2022-09-17T03:16:36;11.52;;;8.20;;
64684;SDS011;51109;47.414;18.954;2022-09-17T03:19:02;13.25;;;8.55;;
64684;SDS011;51109;47.414;18.954;2022-09-17T03:21:28;14.20;;;9.00;;
64684;SDS011;51109;47.414;18.954;2022-09-17T03:23:55;11.15;;;8.15;;
64684;SDS011;51109;47.414;18.954;2022-09-17T03:26:21;9.38;;;7.68;;
64684;SDS011;51109;47.414;18.954;2022-09-17T03:28:47;8.57;;;7.47;;
64684;SDS011;51109;47.414;18.954;2022-09-17T03:31:13;10.50;;;7.38;;
64684;SDS011;51109;47.414;18.954;2022-09-17T03:33:39;10.40;;;7.25;;
64684;SDS011;51109;47.414;18.954;2022-09-17T03:36:05;10.93;;;7.85;;
64684;SDS011;51109;47.414;18.954;2022-09-17T03:38:31;11.73;;;7.20;;
64684;SDS011;51109;47.414;18.954;2022-09-17T03:40:59;7.82;;;7.00;;
64684;SDS011;51109;47.414;18.954;2022-09-17T03:43:26;8.43;;;7.15;;
64684;SDS011;51109;47.414;18.954;2022-09-17T03:45:52;7.25;;;6.47;;
64684;SDS011;51109;47.414;18.954;2022-09-17T03:48:18;8.88;;;6.13;;
64684;SDS011;51109;47.414;18.954;2022-09-17T03:50:44;8.43;;;5.93;;
64684;SDS011;51109;47.414;18.954;2022-09-17T03:53:10;5.72;;;5.20;;
64684;SDS011;51109;47.414;18.954;2022-09-17T03:55:39;6.22;;;4.70;;
64684;SDS011;51109;47.414;18.954;2022-09-17T03:58:05;7.60;;;5.40;;
64684;SDS011;51109;47.414;18.954;2022-09-17T04:00:31;7.00;;;4.60;;
64684;SDS011;51109;47.414;18.954;2022-09-17T04:02:58;6.80;;;4.38;;
64684;SDS011;51109;47.414;18.954;2022-09-17T04:05:24;7.32;;;4.60;;
64684;SDS011;51109;47.414;18.954;2022-09-17T04:07:50;8.23;;;4.90;;
64684;SDS011;51109;47.414;18.954;2022-09-17T04:10:16;6.88;;;4.60;;
64684;SDS011;51109;47.414;18.954;2022-09-17T04:12:42;6.07;;;5.15;;
64684;SDS011;51109;47.414;18.954;2022-09-17T04:15:08;8.00;;;5.10;;
64684;SDS011;51109;47.414;18.954;2022-09-17T04:17:34;5.78;;;5.28;;
64684;SDS011;51109;47.414;18.954;2022-09-17T04:20:03;7.55;;;4.88;;
64684;SDS011;51109;47.414;18.954;2022-09-17T04:22:30;7.50;;;4.85;;
64684;SDS011;51109;47.414;18.954;2022-09-17T04:24:56;9.63;;;4.35;;
64684;SDS011;51109;47.414;18.954;2022-09-17T04:27:22;9.40;;;4.22;;
64684;SDS011;51109;47.414;18.954;2022-09-17T04:29:48;9.60;;;4.72;;
64684;SDS011;51109;47.414;18.954;2022-09-17T04:32:14;12.55;;;4.68;;
64684;SDS011;51109;47.414;18.954;2022-09-17T04:34:40;6.05;;;4.72;;
64684;SDS011;51109;47.414;18.954;2022-09-17T04:37:06;8.10;;;4.90;;
64684;SDS011;51109;47.414;18.954;2022-09-17T04:39:32;5.75;;;4.63;;
64684;SDS011;51109;47.414;18.954;2022-09-17T04:42:02;7.90;;;4.15;;
64684;SDS011;51109;47.414;18.954;2022-09-17T04:44:28;4.88;;;4.35;;
64684;SDS011;51109;47.414;18.954;2022-09-17T04:46:53;6.07;;;4.22;;
64684;SDS011;51109;47.414;18.954;2022-09-17T04:49:20;9.75;;;4.35;;
64684;SDS011;51109;47.414;18.954;2022-09-17T04:51:46;7.03;;;4.70;;
64684;SDS011;51109;47.414;18.954;2022-09-17T04:54:20;5.15;;;4.25;;
64684;SDS011;51109;47.414;18.954;2022-09-17T04:56:52;6.32;;;4.50;;
64684;SDS011;51109;47.414;18.954;2022-09-17T04:59:18;8.15;;;4.30;;
64684;SDS011;51109;47.414;18.954;2022-09-17T05:01:44;8.07;;;4.97;;
64684;SDS011;51109;47.414;18.954;2022-09-17T05:04:10;5.53;;;4.28;;
64684;SDS011;51109;47.414;18.954;2022-09-17T05:09:14;5.70;;;3.83;;
64684;SDS011;51109;47.414;18.954;2022-09-17T05:11:43;11.38;;;6.32;;
64684;SDS011;51109;47.414;18.954;2022-09-17T05:14:09;5.45;;;4.07;;
64684;SDS011;51109;47.414;18.954;2022-09-17T05:16:35;8.27;;;4.78;;
64684;SDS011;51109;47.414;18.954;2022-09-17T05:19:01;7.15;;;4.07;;
64684;SDS011;51109;47.414;18.954;2022-09-17T05:21:28;10.05;;;4.57;;
64684;SDS011;51109;47.414;18.954;2022-09-17T05:23:54;8.23;;;4.53;;
64684;SDS011;51109;47.414;18.954;2022-09-17T05:26:20;11.05;;;5.20;;
64684;SDS011;51109;47.414;18.954;2022-09-17T05:28:50;6.03;;;4.72;;
64684;SDS011;51109;47.414;18.954;2022-09-17T05:31:21;6.25;;;4.15;;
64684;SDS011;51109;47.414;18.954;2022-09-17T05:33:49;7.50;;;4.15;;
64684;SDS011;51109;47.414;18.954;2022-09-17T05:36:15;5.90;;;4.60;;
64684;SDS011;51109;47.414;18.954;2022-09-17T05:38:41;7.60;;;4.25;;
64684;SDS011;51109;47.414;18.954;2022-09-17T05:41:07;4.57;;;4.03;;
64684;SDS011;51109;47.414;18.954;2022-09-17T05:43:33;7.43;;;4.60;;
64684;SDS011;51109;47.414;18.954;2022-09-17T05:46:04;5.80;;;4.78;;
64684;SDS011;51109;47.414;18.954;2022-09-17T05:48:31;6.10;;;3.97;;
64684;SDS011;51109;47.414;18.954;2022-09-17T05:50:57;5.22;;;4.50;;
64684;SDS011;51109;47.414;18.954;2022-09-17T05:53:23;8.18;;;4.22;;
64684;SDS011;51109;47.414;18.954;2022-09-17T05:55:49;8.50;;;4.97;;
64684;SDS011;51109;47.414;18.954;2022-09-17T05:58:16;5.72;;;4.53;;
64684;SDS011;51109;47.414;18.954;2022-09-17T06:00:50;6.28;;;4.68;;
64684;SDS011;51109;47.414;18.954;2022-09-17T06:03:24;8.52;;;5.38;;
64684;SDS011;51109;47.414;18.954;2022-09-17T06:05:51;4.57;;;4.18;;
64684;SDS011;51109;47.414;18.954;2022-09-17T06:08:23;6.68;;;5.25;;
64684;SDS011;51109;47.414;18.954;2022-09-17T06:10:53;8.82;;;4.97;;
64684;SDS011;51109;47.414;18.954;2022-09-17T06:13:22;6.90;;;5.05;;
64684;SDS011;51109;47.414;18.954;2022-09-17T06:15:49;5.93;;;4.63;;
64684;SDS011;51109;47.414;18.954;2022-09-17T06:18:18;6.30;;;4.72;;
64684;SDS011;51109;47.414;18.954;2022-09-17T06:20:51;7.75;;;4.65;;
64684;SDS011;51109;47.414;18.954;2022-09-17T06:23:18;7.00;;;4.30;;
64684;SDS011;51109;47.414;18.954;2022-09-17T06:25:51;7.10;;;5.05;;
64684;SDS011;51109;47.414;18.954;2022-09-17T06:28:21;7.80;;;5.30;;
64684;SDS011;51109;47.414;18.954;2022-09-17T06:30:50;5.03;;;4.53;;
64684;SDS011;51109;47.414;18.954;2022-09-17T06:33:23;8.73;;;4.80;;
64684;SDS011;51109;47.414;18.954;2022-09-17T06:36:00;8.55;;;4.90;;
64684;SDS011;51109;47.414;18.954;2022-09-17T06:38:29;5.60;;;4.70;;
64684;SDS011;51109;47.414;18.954;2022-09-17T06:40:57;8.70;;;4.57;;
64684;SDS011;51109;47.414;18.954;2022-09-17T06:43:23;4.85;;;4.03;;
64684;SDS011;51109;47.414;18.954;2022-09-17T06:45:56;5.65;;;3.97;;
64684;SDS011;51109;47.414;18.954;2022-09-17T06:48:24;7.25;;;3.75;;
64684;SDS011;51109;47.414;18.954;2022-09-17T06:50:52;4.35;;;3.33;;
64684;SDS011;51109;47.414;18.954;2022-09-17T06:53:22;6.00;;;3.95;;
64684;SDS011;51109;47.414;18.954;2022-09-17T06:55:49;4.75;;;3.65;;
64684;SDS011;51109;47.414;18.954;2022-09-17T06:58:15;8.02;;;3.58;;
64684;SDS011;51109;47.414;18.954;2022-09-17T07:00:41;6.05;;;3.75;;
64684;SDS011;51109;47.414;18.954;2022-09-17T07:03:08;3.80;;;3.50;;
64684;SDS011;51109;47.414;18.954;2022-09-17T07:05:34;8.40;;;3.63;;
64684;SDS011;51109;47.414;18.954;2022-09-17T07:08:01;4.85;;;4.00;;
64684;SDS011;51109;47.414;18.954;2022-09-17T07:10:28;5.63;;;3.63;;
64684;SDS011;51109;47.414;18.954;2022-09-17T07:12:55;4.22;;;3.45;;
64684;SDS011;51109;47.414;18.954;2022-09-17T07:15:21;7.03;;;3.92;;
64684;SDS011;51109;47.414;18.954;2022-09-17T07:17:47;4.80;;;3.60;;
64684;SDS011;51109;47.414;18.954;2022-09-17T07:20:14;5.07;;;3.90;;
64684;SDS011;51109;47.414;18.954;2022-09-17T07:22:40;7.63;;;4.25;;
64684;SDS011;51109;47.414;18.954;2022-09-17T07:25:06;7.95;;;3.50;;
64684;SDS011;51109;47.414;18.954;2022-09-17T07:27:33;5.72;;;3.42;;
64684;SDS011;51109;47.414;18.954;2022-09-17T07:29:59;5.55;;;3.25;;
64684;SDS011;51109;47.414;18.954;2022-09-17T07:32:26;4.90;;;3.78;;
64684;SDS011;51109;47.414;18.954;2022-09-17T07:34:54;4.70;;;3.78;;
64684;SDS011;51109;47.414;18.954;2022-09-17T07:37:20;4.15;;;3.50;;
64684;SDS011;51109;47.414;18.954;2022-09-17T07:39:46;4.72;;;3.30;;
64684;SDS011;51109;47.414;18.954;2022-09-17T07:42:12;5.18;;;3.75;;
64684;SDS011;51109;47.414;18.954;2022-09-17T07:44:38;5.65;;;3.22;;
64684;SDS011;51109;47.414;18.954;2022-09-17T07:47:04;6.07;;;4.07;;
64684;SDS011;51109;47.414;18.954;2022-09-17T07:49:30;6.85;;;3.65;;
64684;SDS011;51109;47.414;18.954;2022-09-17T07:51:56;10.15;;;3.35;;
64684;SDS011;51109;47.414;18.954;2022-09-17T07:54:24;5.05;;;3.58;;
64684;SDS011;51109;47.414;18.954;2022-09-17T07:56:50;5.03;;;3.28;;
64684;SDS011;51109;47.414;18.954;2022-09-17T07:59:16;5.32;;;3.10;;
64684;SDS011;51109;47.414;18.954;2022-09-17T08:01:42;3.92;;;3.17;;
64684;SDS011;51109;47.414;18.954;2022-09-17T08:04:08;4.32;;;3.25;;
64684;SDS011;51109;47.414;18.954;2022-09-17T08:06:37;4.45;;;3.35;;
64684;SDS011;51109;47.414;18.954;2022-09-17T08:09:04;4.32;;;3.40;;
64684;SDS011;51109;47.414;18.954;2022-09-17T08:11:31;5.50;;;3.20;;
64684;SDS011;51109;47.414;18.954;2022-09-17T08:13:57;5.07;;;3.22;;
64684;SDS011;51109;47.414;18.954;2022-09-17T08:16:24;4.43;;;3.35;;
64684;SDS011;51109;47.414;18.954;2022-09-17T08:18:54;5.28;;;3.17;;
64684;SDS011;51109;47.414;18.954;2022-09-17T08:21:21;4.82;;;3.35;;
64684;SDS011;51109;47.414;18.954;2022-09-17T08:23:47;4.80;;;3.08;;
64684;SDS011;51109;47.414;18.954;2022-09-17T08:26:14;6.43;;;3.38;;
64684;SDS011;51109;47.414;18.954;2022-09-17T08:28:43;6.05;;;3.78;;
64684;SDS011;51109;47.414;18.954;2022-09-17T08:31:21;6.22;;;3.20;;
64684;SDS011;51109;47.414;18.954;2022-09-17T08:33:48;5.57;;;3.30;;
64684;SDS011;51109;47.414;18.954;2022-09-17T08:36:15;6.95;;;3.20;;
64684;SDS011;51109;47.414;18.954;2022-09-17T08:38:42;7.45;;;3.08;;
64684;SDS011;51109;47.414;18.954;2022-09-17T08:54:58;5.82;;;2.97;;
64684;SDS011;51109;47.414;18.954;2022-09-17T09:00:15;3.42;;;3.13;;
64684;SDS011;51109;47.414;18.954;2022-09-17T09:05:43;4.30;;;3.50;;
64684;SDS011;51109;47.414;18.954;2022-09-17T09:08:21;4.65;;;3.10;;
64684;SDS011;51109;47.414;18.954;2022-09-17T09:11:03;3.90;;;3.50;;
64684;SDS011;51109;47.414;18.954;2022-09-17T09:13:42;4.50;;;3.05;;
64684;SDS011;51109;47.414;18.954;2022-09-17T09:16:18;7.05;;;2.90;;
64684;SDS011;51109;47.414;18.954;2022-09-17T09:18:50;3.17;;;2.85;;
64684;SDS011;51109;47.414;18.954;2022-09-17T09:34:12;6.55;;;2.60;;
64684;SDS011;51109;47.414;18.954;2022-09-17T09:36:39;4.13;;;2.55;;
64684;SDS011;51109;47.414;18.954;2022-09-17T09:39:17;3.65;;;2.78;;
64684;SDS011;51109;47.414;18.954;2022-09-17T09:41:59;8.32;;;3.00;;
64684;SDS011;51109;47.414;18.954;2022-09-17T09:44:33;3.25;;;2.80;;
64684;SDS011;51109;47.414;18.954;2022-09-17T09:55:22;6.32;;;2.83;;
64684;SDS011;51109;47.414;18.954;2022-09-17T09:58:17;8.18;;;3.25;;
64684;SDS011;51109;47.414;18.954;2022-09-17T10:00:56;6.28;;;2.80;;
64684;SDS011;51109;47.414;18.954;2022-09-17T10:03:25;4.05;;;2.38;;
64684;SDS011;51109;47.414;18.954;2022-09-17T10:06:00;6.22;;;2.70;;
64684;SDS011;51109;47.414;18.954;2022-09-17T10:08:27;3.92;;;2.60;;
64684;SDS011;51109;47.414;18.954;2022-09-17T10:10:59;2.60;;;2.40;;
64684;SDS011;51109;47.414;18.954;2022-09-17T10:13:31;3.38;;;1.85;;
64684;SDS011;51109;47.414;18.954;2022-09-17T10:16:33;4.32;;;2.10;;
64684;SDS011;51109;47.414;18.954;2022-09-17T10:21:32;4.25;;;2.15;;
64684;SDS011;51109;47.414;18.954;2022-09-17T10:24:03;3.80;;;2.22;;
64684;SDS011;51109;47.414;18.954;2022-09-17T10:26:38;5.80;;;1.80;;
64684;SDS011;51109;47.414;18.954;2022-09-17T10:29:04;2.67;;;1.70;;
64684;SDS011;51109;47.414;18.954;2022-09-17T10:31:53;3.30;;;1.48;;
64684;SDS011;51109;47.414;18.954;2022-09-17T10:34:22;3.72;;;1.67;;
64684;SDS011;51109;47.414;18.954;2022-09-17T10:36:50;3.67;;;1.70;;
64684;SDS011;51109;47.414;18.954;2022-09-17T10:39:18;4.07;;;1.80;;
64684;SDS011;51109;47.414;18.954;2022-09-17T10:44:42;3.70;;;1.40;;
64684;SDS011;51109;47.414;18.954;2022-09-17T10:47:22;13.15;;;2.17;;
64684;SDS011;51109;47.414;18.954;2022-09-17T10:50:15;1.73;;;1.30;;
64684;SDS011;51109;47.414;18.954;2022-09-17T10:52:47;4.50;;;1.52;;
64684;SDS011;51109;47.414;18.954;2022-09-17T11:17:07;7.85;;;1.95;;
64684;SDS011;51109;47.414;18.954;2022-09-17T11:31:01;4.20;;;1.77;;
64684;SDS011;51109;47.414;18.954;2022-09-17T11:33:38;5.23;;;2.20;;
64684;SDS011;51109;47.414;18.954;2022-09-17T11:36:20;3.20;;;1.60;;
64684;SDS011;51109;47.414;18.954;2022-09-17T11:39:30;7.45;;;2.75;;
64684;SDS011;51109;47.414;18.954;2022-09-17T11:42:20;5.22;;;2.80;;
64684;SDS011;51109;47.414;18.954;2022-09-17T11:44:59;4.57;;;2.42;;
64684;SDS011;51109;47.414;18.954;2022-09-17T11:52:59;9.93;;;3.78;;
64684;SDS011;51109;47.414;18.954;2022-09-17T12:01:08;3.97;;;1.65;;
64684;SDS011;51109;47.414;18.954;2022-09-17T12:03:57;4.60;;;1.65;;
64684;SDS011;51109;47.414;18.954;2022-09-17T12:06:35;6.65;;;2.58;;
64684;SDS011;51109;47.414;18.954;2022-09-17T12:09:14;3.72;;;1.75;;
64684;SDS011;51109;47.414;18.954;2022-09-17T12:11:46;1.85;;;1.50;;
64684;SDS011;51109;47.414;18.954;2022-09-17T12:14:21;6.22;;;2.58;;
64684;SDS011;51109;47.414;18.954;2022-09-17T12:16:52;7.63;;;4.10;;
64684;SDS011;51109;47.414;18.954;2022-09-17T12:19:28;8.68;;;3.47;;
64684;SDS011;51109;47.414;18.954;2022-09-17T12:22:15;17.70;;;6.65;;
64684;SDS011;51109;47.414;18.954;2022-09-17T12:24:45;20.63;;;8.43;;
64684;SDS011;51109;47.414;18.954;2022-09-17T12:35:45;16.77;;;4.78;;
64684;SDS011;51109;47.414;18.954;2022-09-17T12:58:55;6.18;;;1.48;;
64684;SDS011;51109;47.414;18.954;2022-09-17T13:01:31;3.38;;;1.30;;
64684;SDS011;51109;47.414;18.954;2022-09-17T13:18:26;5.88;;;1.65;;
64684;SDS011;51109;47.414;18.954;2022-09-17T13:21:11;2.60;;;1.38;;
64684;SDS011;51109;47.414;18.954;2022-09-17T13:26:09;6.35;;;2.40;;
64684;SDS011;51109;47.414;18.954;2022-09-17T13:28:40;4.75;;;2.10;;
64684;SDS011;51109;47.414;18.954;2022-09-17T13:31:11;3.70;;;1.70;;
64684;SDS011;51109;47.414;18.954;2022-09-17T13:38:59;5.35;;;2.72;;
64684;SDS011;51109;47.414;18.954;2022-09-17T13:41:27;8.77;;;3.20;;
64684;SDS011;51109;47.414;18.954;2022-09-17T13:43:54;5.78;;;1.90;;
64684;SDS011;51109;47.414;18.954;2022-09-17T13:46:21;4.93;;;1.88;;
64684;SDS011;51109;47.414;18.954;2022-09-17T13:48:54;5.32;;;2.33;;
64684;SDS011;51109;47.414;18.954;2022-09-17T13:54:05;6.30;;;1.52;;
64684;SDS011;51109;47.414;18.954;2022-09-17T13:56:37;3.90;;;2.50;;
64684;SDS011;51109;47.414;18.954;2022-09-17T13:59:20;4.63;;;2.03;;
64684;SDS011;51109;47.414;18.954;2022-09-17T14:07:47;3.45;;;1.90;;
64684;SDS011;51109;47.414;18.954;2022-09-17T14:10:26;5.55;;;2.00;;
64684;SDS011;51109;47.414;18.954;2022-09-17T14:15:56;3.85;;;1.63;;
64684;SDS011;51109;47.414;18.954;2022-09-17T14:21:11;6.03;;;2.53;;
64684;SDS011;51109;47.414;18.954;2022-09-17T14:23:48;1.90;;;1.60;;
64684;SDS011;51109;47.414;18.954;2022-09-17T14:31:54;2.83;;;1.90;;
64684;SDS011;51109;47.414;18.954;2022-09-17T14:34:21;2.47;;;1.70;;
64684;SDS011;51109;47.414;18.954;2022-09-17T14:36:50;3.05;;;1.58;;
64684;SDS011;51109;47.414;18.954;2022-09-17T14:39:21;3.80;;;2.05;;
64684;SDS011;51109;47.414;18.954;2022-09-17T14:41:53;2.03;;;1.55;;
64684;SDS011;51109;47.414;18.954;2022-09-17T14:44:24;3.03;;;1.55;;
64684;SDS011;51109;47.414;18.954;2022-09-17T14:46:55;3.78;;;1.70;;
64684;SDS011;51109;47.414;18.954;2022-09-17T14:49:27;3.38;;;2.15;;
64684;SDS011;51109;47.414;18.954;2022-09-17T14:51:55;3.72;;;1.98;;
64684;SDS011;51109;47.414;18.954;2022-09-17T14:56:55;3.25;;;1.80;;
64684;SDS011;51109;47.414;18.954;2022-09-17T14:59:53;3.53;;;1.45;;
64684;SDS011;51109;47.414;18.954;2022-09-17T15:02:42;7.60;;;2.95;;
64684;SDS011;51109;47.414;18.954;2022-09-17T15:08:02;4.45;;;1.50;;
64684;SDS011;51109;47.414;18.954;2022-09-17T15:10:29;3.50;;;1.90;;
64684;SDS011;51109;47.414;18.954;2022-09-17T15:12:56;2.75;;;1.65;;
64684;SDS011;51109;47.414;18.954;2022-09-17T15:15:23;2.72;;;1.70;;
64684;SDS011;51109;47.414;18.954;2022-09-17T15:17:51;3.50;;;1.40;;
64684;SDS011;51109;47.414;18.954;2022-09-17T15:20:20;1.98;;;1.23;;
64684;SDS011;51109;47.414;18.954;2022-09-17T15:22:50;2.70;;;1.50;;
64684;SDS011;51109;47.414;18.954;2022-09-17T15:25:28;4.03;;;1.52;;
64684;SDS011;51109;47.414;18.954;2022-09-17T15:27:56;6.10;;;1.88;;
64684;SDS011;51109;47.414;18.954;2022-09-17T15:30:25;1.77;;;1.33;;
64684;SDS011;51109;47.414;18.954;2022-09-17T15:35:20;3.38;;;1.60;;
64684;SDS011;51109;47.414;18.954;2022-09-17T15:37:46;2.60;;;1.33;;
64684;SDS011;51109;47.414;18.954;2022-09-17T15:40:23;2.65;;;1.30;;
64684;SDS011;51109;47.414;18.954;2022-09-17T15:45:47;2.92;;;1.40;;
64684;SDS011;51109;47.414;18.954;2022-09-17T15:50:59;2.58;;;1.27;;
64684;SDS011;51109;47.414;18.954;2022-09-17T15:53:30;1.70;;;1.20;;
64684;SDS011;51109;47.414;18.954;2022-09-17T15:56:18;3.05;;;1.13;;
64684;SDS011;51109;47.414;18.954;2022-09-17T16:04:09;2.50;;;1.77;;
64684;SDS011;51109;47.414;18.954;2022-09-17T16:06:47;3.72;;;1.80;;
64684;SDS011;51109;47.414;18.954;2022-09-17T16:12:09;1.55;;;1.45;;
64684;SDS011;51109;47.414;18.954;2022-09-17T16:14:37;2.85;;;1.30;;
64684;SDS011;51109;47.414;18.954;2022-09-17T16:17:08;3.35;;;1.40;;
64684;SDS011;51109;47.414;18.954;2022-09-17T16:19:59;1.90;;;1.30;;
64684;SDS011;51109;47.414;18.954;2022-09-17T16:22:33;3.08;;;1.20;;
64684;SDS011;51109;47.414;18.954;2022-09-17T16:24:59;8.38;;;1.70;;
64684;SDS011;51109;47.414;18.954;2022-09-17T16:27:25;3.53;;;1.17;;
64684;SDS011;51109;47.414;18.954;2022-09-17T16:30:04;4.53;;;1.38;;
64684;SDS011;51109;47.414;18.954;2022-09-17T16:32:33;3.08;;;1.50;;
64684;SDS011;51109;47.414;18.954;2022-09-17T16:35:01;3.42;;;1.10;;
64684;SDS011;51109;47.414;18.954;2022-09-17T16:37:27;2.78;;;1.65;;
64684;SDS011;51109;47.414;18.954;2022-09-17T16:39:53;5.15;;;1.42;;
64684;SDS011;51109;47.414;18.954;2022-09-17T16:42:19;3.67;;;1.80;;
64684;SDS011;51109;47.414;18.954;2022-09-17T16:44:45;4.68;;;1.40;;
64684;SDS011;51109;47.414;18.954;2022-09-17T16:47:11;2.92;;;1.50;;
64684;SDS011;51109;47.414;18.954;2022-09-17T16:49:37;2.58;;;1.48;;
64684;SDS011;51109;47.414;18.954;2022-09-17T16:52:03;3.50;;;1.77;;
64684;SDS011;51109;47.414;18.954;2022-09-17T16:54:29;2.88;;;1.60;;
64684;SDS011;51109;47.414;18.954;2022-09-17T16:56:55;5.03;;;2.17;;
64684;SDS011;51109;47.414;18.954;2022-09-17T16:59:20;3.22;;;2.33;;
64684;SDS011;51109;47.414;18.954;2022-09-17T17:01:46;3.90;;;1.58;;
64684;SDS011;51109;47.414;18.954;2022-09-17T17:04:14;4.43;;;2.22;;
64684;SDS011;51109;47.414;18.954;2022-09-17T17:06:40;4.20;;;2.17;;
64684;SDS011;51109;47.414;18.954;2022-09-17T17:09:06;5.25;;;2.10;;
64684;SDS011;51109;47.414;18.954;2022-09-17T17:11:32;6.32;;;2.28;;
64684;SDS011;51109;47.414;18.954;2022-09-17T17:13:58;6.00;;;2.28;;
64684;SDS011;51109;47.414;18.954;2022-09-17T17:16:26;6.65;;;2.80;;
64684;SDS011;51109;47.414;18.954;2022-09-17T17:18:52;6.90;;;2.95;;
64684;SDS011;51109;47.414;18.954;2022-09-17T17:21:18;9.93;;;4.30;;
64684;SDS011;51109;47.414;18.954;2022-09-17T17:23:45;5.63;;;2.60;;
64684;SDS011;51109;47.414;18.954;2022-09-17T17:26:12;3.13;;;2.00;;
64684;SDS011;51109;47.414;18.954;2022-09-17T17:28:40;4.28;;;2.30;;
64684;SDS011;51109;47.414;18.954;2022-09-17T17:31:06;4.82;;;1.90;;
64684;SDS011;51109;47.414;18.954;2022-09-17T17:33:32;6.57;;;2.10;;
64684;SDS011;51109;47.414;18.954;2022-09-17T17:35:59;2.22;;;1.60;;
64684;SDS011;51109;47.414;18.954;2022-09-17T17:38:25;3.78;;;1.80;;
64684;SDS011;51109;47.414;18.954;2022-09-17T17:41:08;3.60;;;2.10;;
64684;SDS011;51109;47.414;18.954;2022-09-17T17:43:35;4.25;;;2.20;;
64684;SDS011;51109;47.414;18.954;2022-09-17T17:46:04;5.35;;;1.67;;
64684;SDS011;51109;47.414;18.954;2022-09-17T17:51:23;3.03;;;1.65;;
64684;SDS011;51109;47.414;18.954;2022-09-17T17:53:49;2.97;;;1.95;;
64684;SDS011;51109;47.414;18.954;2022-09-17T17:56:15;5.40;;;2.28;;
64684;SDS011;51109;47.414;18.954;2022-09-17T17:58:42;5.22;;;2.38;;
64684;SDS011;51109;47.414;18.954;2022-09-17T18:01:09;5.65;;;2.40;;
64684;SDS011;51109;47.414;18.954;2022-09-17T18:03:39;2.88;;;2.03;;
64684;SDS011;51109;47.414;18.954;2022-09-17T18:06:05;5.43;;;2.00;;
64684;SDS011;51109;47.414;18.954;2022-09-17T18:08:33;2.17;;;1.83;;
64684;SDS011;51109;47.414;18.954;2022-09-17T18:11:01;4.78;;;1.85;;
64684;SDS011;51109;47.414;18.954;2022-09-17T18:13:29;3.90;;;2.58;;
64684;SDS011;51109;47.414;18.954;2022-09-17T18:15:56;3.55;;;2.05;;
64684;SDS011;51109;47.414;18.954;2022-09-17T18:18:24;2.20;;;1.70;;
64684;SDS011;51109;47.414;18.954;2022-09-17T18:21:01;3.22;;;1.88;;
64684;SDS011;51109;47.414;18.954;2022-09-17T18:23:30;3.22;;;1.92;;
64684;SDS011;51109;47.414;18.954;2022-09-17T18:25:58;4.60;;;1.95;;
64684;SDS011;51109;47.414;18.954;2022-09-17T18:28:26;2.33;;;1.58;;
64684;SDS011;51109;47.414;18.954;2022-09-17T18:30:53;3.05;;;1.80;;
64684;SDS011;51109;47.414;18.954;2022-09-17T18:33:23;5.18;;;1.85;;
64684;SDS011;51109;47.414;18.954;2022-09-17T18:35:51;2.55;;;1.60;;
64684;SDS011;51109;47.414;18.954;2022-09-17T18:38:21;3.90;;;1.90;;
64684;SDS011;51109;47.414;18.954;2022-09-17T18:40:48;2.15;;;1.67;;
64684;SDS011;51109;47.414;18.954;2022-09-17T18:43:14;1.92;;;1.42;;